Hauptseite
METAR-TAF:

METAR-TAF

Flughäfen :

Leconfield, England

Breite: 53-52-37N, Länge: 0-26-15W, Höhe: 7 m

Beobachtung

Neuester Wetterbericht von vor 1 Stunde und 2 Minuten, um 02:50 UTC
Wind 17 kt aus West, Böen bis zu 29 kt
Temperatur 11°C
Luftfeuchtigkeit 71%
Luftdruck 1027 hPa

METAR: EGXV 230250Z AUTO 27017G29KT //// // BKN150/// 11/06 Q1027

Zeit: 04:52 (03:52 UTC)


TAF: fehlend

Wetterbeobachtungen und Prognosen von mehr als 4000 Flughäfen (METAR und TAF Bericht).

Die verfügbaren Stationen werden durch gelbe und rote Markierungen auf der Karte dargestellt.

Führen Sie die Maus auf sie, um den Namen der Station zu sehen.

Darauf klicken, um die Beobachtung von Wetterbeobachtungen und Prognosen zu sehen.

Um die Karte zu ändern : klicken Sie auf den grünen Tasten mit einem schwarzen Kreuz Zum Vergrößern, auf den grünen Button mit einem Gedankenstrich zu verkleinern, oder auf die grünen Pfeile für benachbarte Karten.


METAR-TAF: